createdAt,value
2022-08-05T04:31:01.000Z,9.50
2022-08-05T04:31:59.343Z,9.50
2022-08-05T04:32:59.322Z,8.80
2022-08-05T04:34:18.577Z,9.10
2022-08-05T04:35:00.292Z,9.40
2022-08-05T04:36:10.667Z,9.60
2022-08-05T04:37:00.282Z,9.90
2022-08-05T04:38:02.663Z,9.40
2022-08-05T04:39:00.255Z,9.50
2022-08-05T04:39:59.222Z,9.40
2022-08-05T04:40:59.222Z,9.80
2022-08-05T04:41:59.202Z,10.10
2022-08-05T04:42:59.202Z,9.50
2022-08-05T04:44:09.407Z,9.10
2022-08-05T04:44:59.190Z,10.10
2022-08-05T04:45:59.159Z,9.90
2022-08-05T04:46:59.303Z,10.30
2022-08-05T04:47:59.128Z,9.50
2022-08-05T04:48:59.128Z,9.60
2022-08-05T04:50:02.759Z,9.00
2022-08-05T04:51:02.552Z,9.20
2022-08-05T04:52:00.552Z,9.40
2022-08-05T04:52:59.080Z,9.70
2022-08-05T04:53:59.048Z,9.10
2022-08-05T04:54:59.040Z,9.00
2022-08-05T04:56:33.959Z,8.30
2022-08-05T04:57:00.008Z,10.00
2022-08-05T04:57:59.018Z,9.40
2022-08-05T04:58:58.989Z,9.00
2022-08-05T04:59:59.070Z,8.80
2022-08-05T05:00:59.029Z,9.10
2022-08-05T05:02:08.231Z,8.40
2022-08-05T05:03:03.763Z,7.50
2022-08-05T05:03:58.951Z,7.60
2022-08-05T05:05:02.378Z,7.50
2022-08-05T05:06:39.152Z,7.00
2022-08-05T05:06:59.888Z,7.10
2022-08-05T05:08:01.517Z,7.40
2022-08-05T05:08:58.848Z,7.60
2022-08-05T05:09:58.840Z,8.30
2022-08-05T05:10:58.835Z,8.00
2022-08-05T05:12:02.862Z,7.80
2022-08-05T05:12:58.837Z,7.00
2022-08-05T05:13:58.787Z,7.50
2022-08-05T05:14:58.778Z,7.40
2022-08-05T05:16:02.303Z,7.10
2022-08-05T05:16:59.756Z,7.50
2022-08-05T05:17:58.951Z,6.90
2022-08-05T05:19:18.986Z,6.70
2022-08-05T05:19:59.719Z,7.30
2022-08-05T05:20:58.764Z,6.70
2022-08-05T05:21:58.696Z,7.90
2022-08-05T05:23:01.384Z,7.40
2022-08-05T05:24:02.221Z,6.80
2022-08-05T05:25:01.216Z,6.50
2022-08-05T05:25:58.627Z,6.60
2022-08-05T05:26:58.617Z,6.30
2022-08-05T05:27:58.709Z,6.90
2022-08-05T05:28:58.609Z,7.00
2022-08-05T05:30:04.624Z,7.20
2022-08-05T05:30:59.586Z,7.40
2022-08-05T05:31:58.548Z,7.20
2022-08-05T05:33:00.825Z,6.40
2022-08-05T05:34:01.661Z,7.30
2022-08-05T05:34:58.518Z,7.70
2022-08-05T05:35:58.517Z,7.30
2022-08-05T05:36:58.487Z,7.00
2022-08-05T05:38:00.178Z,6.60
2022-08-05T05:38:58.515Z,7.10
2022-08-05T05:39:58.469Z,7.40
2022-08-05T05:40:58.453Z,7.30
2022-08-05T05:41:58.426Z,7.10
2022-08-05T05:42:58.408Z,6.90
2022-08-05T05:44:00.315Z,7.30
2022-08-05T05:44:59.385Z,6.80
2022-08-05T05:45:58.374Z,6.80
2022-08-05T05:46:58.422Z,7.40
2022-08-05T05:48:05.542Z,7.00
2022-08-05T05:48:59.347Z,7.20
2022-08-05T05:50:01.836Z,7.20
2022-08-05T05:50:59.310Z,7.50
2022-08-05T05:51:59.288Z,7.00
2022-08-05T05:52:58.278Z,7.30
2022-08-05T05:53:59.840Z,7.10
2022-08-05T05:54:58.257Z,7.30
2022-08-05T05:56:00.636Z,7.90
2022-08-05T05:56:58.228Z,7.70
2022-08-05T05:57:58.230Z,7.30
2022-08-05T05:58:58.228Z,7.70
2022-08-05T05:59:59.198Z,7.70
2022-08-05T06:00:58.178Z,7.60
2022-08-05T06:01:59.173Z,7.10
2022-08-05T06:02:58.148Z,7.20
2022-08-05T06:04:01.712Z,7.20
2022-08-05T06:04:59.203Z,7.00
2022-08-05T06:05:58.109Z,8.00
2022-08-05T06:06:58.097Z,7.00
2022-08-05T06:08:01.932Z,6.70
2022-08-05T06:08:58.095Z,7.30
2022-08-05T06:10:01.387Z,7.30
2022-08-05T06:10:59.053Z,6.70
2022-08-05T06:11:59.094Z,7.30
2022-08-05T06:12:58.017Z,6.40
2022-08-05T06:13:58.017Z,6.20
2022-08-05T06:14:58.016Z,6.00
2022-08-05T06:16:28.839Z,6.20
2022-08-05T06:16:59.033Z,6.80
2022-08-05T06:17:57.968Z,5.80
2022-08-05T06:19:01.187Z,5.60
2022-08-05T06:19:59.582Z,6.80
2022-08-05T06:20:57.919Z,6.40
2022-08-05T06:21:57.909Z,7.00
2022-08-05T06:22:57.902Z,6.40
2022-08-05T06:23:57.878Z,6.50
2022-08-05T06:24:57.865Z,5.70
2022-08-05T06:26:12.583Z,6.00
2022-08-05T06:26:58.837Z,6.60
2022-08-05T06:28:12.137Z,6.90
2022-08-05T06:28:58.817Z,6.70
2022-08-05T06:30:04.338Z,6.70
2022-08-05T06:30:58.787Z,5.90
2022-08-05T06:31:57.798Z,6.20
2022-08-05T06:32:57.775Z,5.90
2022-08-05T06:34:06.985Z,6.10
2022-08-05T06:34:58.803Z,6.00
2022-08-05T06:36:03.380Z,5.90
2022-08-05T06:36:58.831Z,5.80
2022-08-05T06:37:59.583Z,5.40
2022-08-05T06:38:58.721Z,5.50
2022-08-05T06:39:57.677Z,6.00
2022-08-05T06:40:57.665Z,5.40
2022-08-05T06:41:58.946Z,5.90
2022-08-05T06:42:57.627Z,5.50
2022-08-05T06:44:00.567Z,5.60
2022-08-05T06:44:57.597Z,5.80
2022-08-05T06:46:03.563Z,6.30
2022-08-05T06:46:58.575Z,6.10
2022-08-05T06:48:46.857Z,5.90
2022-08-05T06:48:59.274Z,6.60
2022-08-05T06:50:01.566Z,6.20
2022-08-05T06:50:58.537Z,6.00
2022-08-05T06:51:57.519Z,5.60
2022-08-05T06:52:58.554Z,6.60
2022-08-05T06:53:57.497Z,6.00
2022-08-05T06:54:57.467Z,6.20
2022-08-05T06:55:57.458Z,5.40
2022-08-05T06:57:56.713Z,6.30
2022-08-05T06:58:11.684Z,5.80
2022-08-05T06:58:58.447Z,6.00
2022-08-05T06:59:58.312Z,6.00
2022-08-05T07:00:57.408Z,5.80
2022-08-05T07:01:57.385Z,5.80
2022-08-05T07:02:57.359Z,6.00
2022-08-05T07:03:57.357Z,5.40
2022-08-05T07:04:57.347Z,5.30
2022-08-05T07:05:57.339Z,5.50
2022-08-05T07:06:57.320Z,5.80
2022-08-05T07:07:57.306Z,6.10
2022-08-05T07:08:59.067Z,6.30
2022-08-05T07:09:58.451Z,6.30
2022-08-05T07:10:58.216Z,6.20
2022-08-05T07:12:00.239Z,6.30
2022-08-05T07:12:57.242Z,5.90
2022-08-05T07:14:00.060Z,7.20
2022-08-05T07:14:57.227Z,7.50
2022-08-05T07:16:01.441Z,7.70
2022-08-05T07:17:58.331Z,7.80
2022-08-05T07:18:07.084Z,8.30
2022-08-05T07:18:58.158Z,7.40
2022-08-05T07:20:31.369Z,7.20
2022-08-05T07:20:58.128Z,7.00
2022-08-05T07:22:00.962Z,7.10
2022-08-05T07:22:57.108Z,7.20
2022-08-05T07:23:57.108Z,6.80
2022-08-05T07:24:57.091Z,6.80
2022-08-05T07:25:57.171Z,7.00
2022-08-05T07:26:57.056Z,7.00
2022-08-05T07:28:02.272Z,6.80
2022-08-05T07:28:58.027Z,6.80
2022-08-05T07:30:27.919Z,6.00
2022-08-05T07:30:58.006Z,6.20
2022-08-05T07:31:56.997Z,6.60
2022-08-05T07:32:57.389Z,6.80
2022-08-05T07:33:56.997Z,7.20
2022-08-05T07:34:57.767Z,6.60
2022-08-05T07:36:19.675Z,6.80
2022-08-05T07:36:57.924Z,6.00
2022-08-05T07:37:56.919Z,6.80
2022-08-05T07:38:56.937Z,6.10
2022-08-05T07:40:03.978Z,6.10
2022-08-05T07:41:01.481Z,6.50
2022-08-05T07:42:13.452Z,6.70
2022-08-05T07:42:57.858Z,6.30
2022-08-05T07:43:57.110Z,6.90
2022-08-05T07:44:56.850Z,6.50
2022-08-05T07:45:58.490Z,5.40
2022-08-05T07:46:56.817Z,5.30
2022-08-05T07:47:56.807Z,5.80
2022-08-05T07:49:01.679Z,5.10
2022-08-05T07:49:57.768Z,5.50
2022-08-05T07:50:56.747Z,5.00
2022-08-05T07:51:56.726Z,5.40
2022-08-05T07:52:56.717Z,5.10
2022-08-05T07:53:56.706Z,4.90
2022-08-05T07:54:56.717Z,5.60
2022-08-05T07:56:06.330Z,5.50
2022-08-05T07:57:02.422Z,6.80
2022-08-05T07:58:03.211Z,5.60
2022-08-05T07:58:59.354Z,6.50
2022-08-05T07:59:56.638Z,7.00
2022-08-05T08:00:56.670Z,7.10
2022-08-05T08:01:57.652Z,6.60
2022-08-05T08:03:13.337Z,7.20
2022-08-05T08:03:57.567Z,6.00
2022-08-05T08:04:56.567Z,6.10
2022-08-05T08:05:56.567Z,7.30
2022-08-05T08:06:56.536Z,6.20
2022-08-05T08:08:00.201Z,5.40
2022-08-05T08:08:56.539Z,5.90
2022-08-05T08:09:56.521Z,5.50
2022-08-05T08:10:56.499Z,5.30
2022-08-05T08:11:59.037Z,5.40
2022-08-05T08:12:58.526Z,5.10
2022-08-05T08:14:00.839Z,5.50
2022-08-05T08:14:56.436Z,5.10
2022-08-05T08:16:34.667Z,4.20
2022-08-05T08:16:57.415Z,4.50
2022-08-05T08:17:56.397Z,4.70
2022-08-05T08:18:57.396Z,4.90
2022-08-05T08:20:21.653Z,4.50
2022-08-05T08:21:02.939Z,4.80
2022-08-05T08:21:57.346Z,4.20
2022-08-05T08:22:56.337Z,5.20
2022-08-05T08:24:01.044Z,4.20
2022-08-05T08:25:03.374Z,4.50
2022-08-05T08:26:00.069Z,4.50
2022-08-05T08:26:56.277Z,4.40
2022-08-05T08:27:56.265Z,4.20
2022-08-05T08:28:59.792Z,4.30
2022-08-05T08:30:05.938Z,4.50
2022-08-05T08:30:57.236Z,4.60
2022-08-05T08:31:56.206Z,4.70
2022-08-05T08:32:56.204Z,4.60
2022-08-05T08:33:56.390Z,4.20
2022-08-05T08:34:56.175Z,4.70
2022-08-05T08:36:18.469Z,4.30
2022-08-05T08:37:03.144Z,4.70
2022-08-05T08:37:57.147Z,4.80
2022-08-05T08:38:57.067Z,4.80
2022-08-05T08:39:56.154Z,4.70
2022-08-05T08:40:56.119Z,4.90
2022-08-05T08:41:59.980Z,4.50
2022-08-05T08:42:57.266Z,4.70
2022-08-05T08:45:24.352Z,5.00
2022-08-05T08:45:25.337Z,4.80
2022-08-05T08:45:57.055Z,4.30
2022-08-05T08:46:56.016Z,4.40
2022-08-05T08:48:11.702Z,4.60
2022-08-05T08:49:07.964Z,4.60
2022-08-05T08:50:23.069Z,5.00
2022-08-05T08:51:07.605Z,4.70
2022-08-05T08:52:03.147Z,4.80
2022-08-05T08:52:56.936Z,4.50
2022-08-05T08:53:55.949Z,4.70
2022-08-05T08:54:55.926Z,4.20
2022-08-05T08:56:02.586Z,4.40
2022-08-05T08:56:56.911Z,5.00
2022-08-05T08:57:58.154Z,4.80
2022-08-05T08:58:55.886Z,4.70
2022-08-05T08:59:56.030Z,5.10
2022-08-05T09:00:55.903Z,4.70
2022-08-05T09:01:57.614Z,4.80
2022-08-05T09:02:56.816Z,4.10
2022-08-05T09:03:57.537Z,4.20
2022-08-05T09:05:16.283Z,4.30
2022-08-05T09:06:07.318Z,4.50
2022-08-05T09:06:56.775Z,4.00
2022-08-05T09:07:57.536Z,4.30
2022-08-05T09:08:55.735Z,3.10
2022-08-05T09:09:55.716Z,3.50
2022-08-05T09:10:55.721Z,3.70
2022-08-05T09:12:01.258Z,3.70
2022-08-05T09:12:56.685Z,3.60
2022-08-05T09:14:01.264Z,3.40
2022-08-05T09:15:05.872Z,3.50
2022-08-05T09:15:56.636Z,3.60
2022-08-05T09:16:55.635Z,3.30
2022-08-05T09:17:55.607Z,3.30
2022-08-05T09:18:55.671Z,2.90
2022-08-05T09:20:02.871Z,3.80
2022-08-05T09:20:56.575Z,3.50
2022-08-05T09:22:22.751Z,3.40
2022-08-05T09:23:01.613Z,2.90
2022-08-05T09:24:02.089Z,2.90
2022-08-05T09:24:56.531Z,3.10
2022-08-05T09:26:02.077Z,3.10
2022-08-05T09:26:56.514Z,3.80
2022-08-05T09:28:03.982Z,3.30
2022-08-05T09:28:56.493Z,3.00
2022-08-05T09:29:55.465Z,2.80
2022-08-05T09:30:55.455Z,2.90
2022-08-05T09:32:41.814Z,3.40
2022-08-05T09:32:56.761Z,3.30
2022-08-05T09:33:55.424Z,3.60
2022-08-05T09:34:55.396Z,2.80
2022-08-05T09:35:55.375Z,2.90
2022-08-05T09:36:59.808Z,3.60
2022-08-05T09:38:17.363Z,3.30
2022-08-05T09:38:56.371Z,2.90
2022-08-05T09:39:56.042Z,2.90
2022-08-05T09:40:55.317Z,2.90
2022-08-05T09:41:56.225Z,2.70
2022-08-05T09:42:55.303Z,2.80
2022-08-05T09:43:55.433Z,3.30
2022-08-05T09:44:56.748Z,2.80
2022-08-05T09:46:06.728Z,2.90
2022-08-05T09:46:57.995Z,2.70
2022-08-05T09:47:56.689Z,2.60
2022-08-05T09:49:07.637Z,3.40
2022-08-05T09:50:02.543Z,2.70
2022-08-05T09:50:56.198Z,2.80
2022-08-05T09:51:55.165Z,2.70
2022-08-05T09:52:55.205Z,2.70
2022-08-05T09:53:59.235Z,2.90
2022-08-05T09:54:56.134Z,2.30
2022-08-05T09:56:02.921Z,3.00
2022-08-05T09:56:56.118Z,3.10
2022-08-05T09:57:58.702Z,2.50
2022-08-05T09:58:56.084Z,2.60
2022-08-05T09:59:55.065Z,2.70
2022-08-05T10:00:55.056Z,2.80
2022-08-05T10:01:57.983Z,3.30
2022-08-05T10:02:57.995Z,2.70
2022-08-05T10:03:59.194Z,2.60
2022-08-05T10:04:55.006Z,2.70
2022-08-05T10:05:54.997Z,2.50
2022-08-05T10:06:59.556Z,2.80
2022-08-05T10:08:36.053Z,3.10
2022-08-05T10:08:55.976Z,2.80
2022-08-05T10:10:14.005Z,2.90
2022-08-05T10:10:55.946Z,2.70
2022-08-05T10:11:54.914Z,3.00
2022-08-05T10:12:54.918Z,2.90
2022-08-05T10:13:55.012Z,3.20
2022-08-05T10:14:54.876Z,2.70
2022-08-05T10:15:54.868Z,3.30
2022-08-05T10:16:54.856Z,2.80
2022-08-05T10:17:57.596Z,2.60
2022-08-05T10:18:54.832Z,3.10
2022-08-05T10:20:04.240Z,2.70
2022-08-05T10:20:55.810Z,2.60
2022-08-05T10:21:54.785Z,2.60
2022-08-05T10:22:54.794Z,2.60
2022-08-05T10:23:59.467Z,2.50
2022-08-05T10:24:55.754Z,2.90
2022-08-05T10:25:54.737Z,2.50
2022-08-05T10:26:54.745Z,2.60
2022-08-05T10:28:13.857Z,2.50
2022-08-05T10:28:56.432Z,2.70
2022-08-05T10:30:41.096Z,2.70
2022-08-05T10:32:52.922Z,2.70
2022-08-05T10:32:55.399Z,2.70
2022-08-05T10:33:01.746Z,3.10
2022-08-05T10:33:55.663Z,2.40
2022-08-05T10:34:54.625Z,2.60
2022-08-05T10:35:59.202Z,2.80
2022-08-05T10:36:55.597Z,2.30
2022-08-05T10:37:54.585Z,2.60
2022-08-05T10:38:54.625Z,2.20
2022-08-05T10:40:03.064Z,2.40
2022-08-05T10:40:55.547Z,2.20
2022-08-05T10:41:59.081Z,2.40
2022-08-05T10:42:55.565Z,2.40
2022-08-05T10:43:54.521Z,2.40
2022-08-05T10:45:01.578Z,2.20
2022-08-05T10:45:54.479Z,2.20
2022-08-05T10:46:55.462Z,2.20
2022-08-05T10:48:29.127Z,2.10
2022-08-05T10:48:58.045Z,2.00
2022-08-05T10:50:32.276Z,1.70
2022-08-05T10:50:55.410Z,1.90
2022-08-05T10:51:59.857Z,1.90
2022-08-05T10:52:58.787Z,2.00
2022-08-05T10:53:54.467Z,1.70
2022-08-05T10:54:56.067Z,2.40
2022-08-05T10:56:05.054Z,1.70
2022-08-05T10:56:55.330Z,1.60
2022-08-05T10:57:54.318Z,1.50
2022-08-05T10:58:54.320Z,1.50
2022-08-05T11:00:04.323Z,1.50
2022-08-05T11:01:03.048Z,1.50
2022-08-05T11:02:05.410Z,1.60
2022-08-05T11:02:55.284Z,1.60
2022-08-05T11:03:54.267Z,1.60
2022-08-05T11:04:54.229Z,1.60
2022-08-05T11:05:54.212Z,1.60
2022-08-05T11:06:55.202Z,1.40
2022-08-05T11:08:02.875Z,1.40
2022-08-05T11:08:55.191Z,1.40
2022-08-05T11:10:09.499Z,1.10
2022-08-05T11:11:00.934Z,1.40
2022-08-05T11:11:55.139Z,1.30
2022-08-05T11:12:55.251Z,1.20
2022-08-05T11:13:57.563Z,1.40
2022-08-05T11:15:19.140Z,1.30
2022-08-05T11:16:00.729Z,1.30
2022-08-05T11:16:57.255Z,1.30
2022-08-05T11:18:09.688Z,1.10
2022-08-05T11:18:55.073Z,1.10
2022-08-05T11:20:17.608Z,1.10
2022-08-05T11:20:55.031Z,1.10
2022-08-05T11:21:54.011Z,1.20
2022-08-05T11:22:57.998Z,1.20
2022-08-05T11:24:04.679Z,1.10
2022-08-05T11:25:16.574Z,1.10
2022-08-05T11:26:05.970Z,1.20
2022-08-05T11:26:54.952Z,1.40
2022-08-05T11:28:00.955Z,1.20
2022-08-05T11:28:54.942Z,1.10
2022-08-05T11:29:53.912Z,1.20
2022-08-05T11:30:53.903Z,1.30
2022-08-05T11:32:00.320Z,1.30
2022-08-05T11:32:54.880Z,1.60
2022-08-05T11:33:53.873Z,1.60
2022-08-05T11:34:54.323Z,1.60
2022-08-05T11:36:08.212Z,1.50
2022-08-05T11:36:54.834Z,1.50
2022-08-05T11:38:28.357Z,1.50
2022-08-05T11:38:55.429Z,1.50
2022-08-05T11:40:00.359Z,1.50
2022-08-05T11:40:58.739Z,1.60
2022-08-05T11:42:02.292Z,1.40
2022-08-05T11:42:54.745Z,1.40
2022-08-05T11:44:04.491Z,1.30
2022-08-05T11:44:54.728Z,1.50
2022-08-05T11:46:15.310Z,1.60
2022-08-05T11:47:10.257Z,1.60
2022-08-05T11:47:55.135Z,1.60
2022-08-05T11:48:53.685Z,1.80
2022-08-05T11:49:53.656Z,1.70
2022-08-05T11:50:53.645Z,1.60
2022-08-05T11:51:53.634Z,1.70
2022-08-05T11:52:57.529Z,1.80
2022-08-05T11:53:53.653Z,1.70
2022-08-05T11:54:55.033Z,1.80
2022-08-05T11:55:53.575Z,1.80
2022-08-05T11:56:53.579Z,1.60
2022-08-05T11:58:10.521Z,1.80
2022-08-05T11:58:54.577Z,1.60
2022-08-05T11:59:53.579Z,1.40
2022-08-05T12:00:53.530Z,1.70
2022-08-05T12:01:53.506Z,1.30
2022-08-05T12:02:53.517Z,1.50
2022-08-05T12:03:55.808Z,1.50
2022-08-05T12:04:59.662Z,1.80
2022-08-05T12:05:54.463Z,1.90
2022-08-05T12:06:53.458Z,1.60
2022-08-05T12:08:09.257Z,1.90
2022-08-05T12:08:54.417Z,1.50
2022-08-05T12:09:53.868Z,1.50
2022-08-05T12:10:53.398Z,1.40
2022-08-05T12:11:53.378Z,1.70
2022-08-05T12:12:59.550Z,1.60
2022-08-05T12:13:54.359Z,1.50
2022-08-05T12:14:53.370Z,1.80
2022-08-05T12:15:55.894Z,1.50
2022-08-05T12:16:53.328Z,2.00
2022-08-05T12:18:04.136Z,2.20
2022-08-05T12:18:54.299Z,1.90
2022-08-05T12:20:27.016Z,1.80
2022-08-05T12:20:54.277Z,1.80
2022-08-05T12:21:53.257Z,1.70
2022-08-05T12:22:53.249Z,1.80
2022-08-05T12:23:53.231Z,2.10
2022-08-05T12:24:53.230Z,2.20
2022-08-05T12:25:53.304Z,2.10
2022-08-05T12:26:53.238Z,1.90
2022-08-05T12:27:53.645Z,1.90
2022-08-05T12:28:53.170Z,2.00
2022-08-05T12:29:53.352Z,2.40
2022-08-05T12:30:53.150Z,2.00
2022-08-05T12:31:54.220Z,2.10
2022-08-05T12:32:53.128Z,1.90
2022-08-05T12:33:53.102Z,2.70
2022-08-05T12:34:53.109Z,2.20
2022-08-05T12:35:53.114Z,2.10
2022-08-05T12:36:53.146Z,2.00
2022-08-05T12:37:53.224Z,2.10
2022-08-05T12:38:53.050Z,2.40
2022-08-05T12:39:53.941Z,2.00
2022-08-05T12:40:53.020Z,1.90
2022-08-05T12:41:57.963Z,1.80
2022-08-05T12:42:53.991Z,1.80
2022-08-05T12:43:53.021Z,2.00
2022-08-05T12:44:52.981Z,1.90
2022-08-05T12:45:52.953Z,2.00
2022-08-05T12:46:52.942Z,1.90
2022-08-05T12:48:17.156Z,1.80
2022-08-05T12:48:53.931Z,1.90
2022-08-05T12:50:03.698Z,2.50
2022-08-05T12:50:53.891Z,1.80
2022-08-05T12:52:12.421Z,2.40
2022-08-05T12:52:53.869Z,2.10
2022-08-05T12:53:55.659Z,2.00
2022-08-05T12:54:52.852Z,2.10
2022-08-05T12:55:52.834Z,2.20
2022-08-05T12:56:52.813Z,2.30
2022-08-05T12:58:51.005Z,2.40
2022-08-05T12:59:00.958Z,2.80
2022-08-05T13:01:56.959Z,1.90
2022-08-05T13:01:59.786Z,1.70
2022-08-05T13:02:01.517Z,1.60
2022-08-05T13:02:55.571Z,1.90
2022-08-05T13:03:52.723Z,1.60
2022-08-05T13:04:54.735Z,2.10
2022-08-05T13:05:52.702Z,1.80
2022-08-05T13:06:52.693Z,1.90
2022-08-05T13:07:59.310Z,1.70
2022-08-05T13:08:53.664Z,1.60
2022-08-05T13:09:56.683Z,2.30
2022-08-05T13:10:52.644Z,1.70
2022-08-05T13:12:01.255Z,1.80
2022-08-05T13:12:58.028Z,1.80
2022-08-05T13:14:05.926Z,1.60
2022-08-05T13:15:05.518Z,1.70
2022-08-05T13:15:53.575Z,1.90
2022-08-05T13:16:52.566Z,1.50
2022-08-05T13:17:52.556Z,1.70
2022-08-05T13:18:52.543Z,1.60
2022-08-05T13:19:53.120Z,1.90
2022-08-05T13:20:52.525Z,1.70
2022-08-05T13:21:55.980Z,2.00
2022-08-05T13:22:52.486Z,2.00
2022-08-05T13:23:52.479Z,1.90
2022-08-05T13:24:58.051Z,1.80
2022-08-05T13:25:59.150Z,1.70
2022-08-05T13:26:53.443Z,1.80
2022-08-05T13:27:52.456Z,1.70
2022-08-05T13:28:52.494Z,1.60
2022-08-05T13:30:32.328Z,1.70
2022-08-05T13:30:53.676Z,1.60
2022-08-05T13:32:04.200Z,1.70
2022-08-05T13:32:53.365Z,1.90
2022-08-05T13:34:21.626Z,1.70
2022-08-05T13:34:53.337Z,1.60
2022-08-05T13:35:52.327Z,1.60
2022-08-05T13:36:52.315Z,1.60
2022-08-05T13:37:55.399Z,1.60
2022-08-05T13:38:52.286Z,1.50
2022-08-05T13:40:16.401Z,1.40
2022-08-05T13:40:53.369Z,1.30
2022-08-05T13:41:52.246Z,1.50
2022-08-05T13:42:55.707Z,1.30
2022-08-05T13:43:54.492Z,1.10
2022-08-05T13:44:52.207Z,1.20
2022-08-05T13:45:52.206Z,1.30
2022-08-05T13:47:04.548Z,1.10
2022-08-05T13:48:09.848Z,1.20
2022-08-05T13:48:57.520Z,1.20
2022-08-05T13:49:53.147Z,1.00
2022-08-05T13:50:52.145Z,1.10
2022-08-05T13:51:52.117Z,1.10
2022-08-05T13:52:52.096Z,1.20
2022-08-05T13:53:52.095Z,0.90
2022-08-05T13:54:53.331Z,1.00
2022-08-05T13:55:58.878Z,1.00
2022-08-05T13:56:53.047Z,0.90
2022-08-05T13:57:52.206Z,1.00
2022-08-05T13:58:53.415Z,0.90
2022-08-05T13:59:59.310Z,0.90
2022-08-05T14:00:53.015Z,0.90
2022-08-05T14:01:59.151Z,0.80
2022-08-05T14:02:53.061Z,0.70
2022-08-05T14:03:51.970Z,1.40
2022-08-05T14:04:52.038Z,0.90
2022-08-05T14:06:25.195Z,0.80
2022-08-05T14:07:12.157Z,0.70
2022-08-05T14:08:00.389Z,0.80
2022-08-05T14:08:52.899Z,1.20
2022-08-05T14:09:51.887Z,0.70
2022-08-05T14:10:51.868Z,0.70
2022-08-05T14:12:03.950Z,0.50
2022-08-05T14:12:54.634Z,0.50
2022-08-05T14:13:55.004Z,0.50
2022-08-05T14:14:52.820Z,0.60
2022-08-05T14:16:05.681Z,0.50
2022-08-05T14:16:55.396Z,0.50
2022-08-05T14:17:51.788Z,0.60
2022-08-05T14:18:51.770Z,0.40
2022-08-05T14:19:55.361Z,0.70
2022-08-05T14:20:55.114Z,0.40
2022-08-05T14:22:09.232Z,0.50
2022-08-05T14:22:52.717Z,0.50
2022-08-05T14:23:51.716Z,0.40
2022-08-05T14:24:51.690Z,0.40
2022-08-05T14:25:53.800Z,0.40
2022-08-05T14:27:15.560Z,0.40
2022-08-05T14:27:52.659Z,0.40
2022-08-05T14:28:52.132Z,0.60
2022-08-05T14:29:52.160Z,0.40
2022-08-05T14:30:53.445Z,0.40
2022-08-05T14:32:03.805Z,0.30
2022-08-05T14:32:52.603Z,0.30
2022-08-05T14:33:59.316Z,0.40
2022-08-05T14:34:52.570Z,0.50
2022-08-05T14:35:54.000Z,0.80
2022-08-05T14:36:51.552Z,0.60
2022-08-05T14:37:55.434Z,0.40
2022-08-05T14:38:51.523Z,0.40
2022-08-05T14:39:57.013Z,0.30
2022-08-05T14:40:52.489Z,0.30
2022-08-05T14:42:15.877Z,0.40
2022-08-05T14:42:52.463Z,0.40
2022-08-05T14:43:58.810Z,0.40
2022-08-05T14:44:52.442Z,0.40
2022-08-05T14:45:51.436Z,0.60
2022-08-05T14:46:51.425Z,0.40
2022-08-05T14:48:05.556Z,0.40
2022-08-05T14:48:52.382Z,0.30
2022-08-05T14:49:59.505Z,0.40
2022-08-05T14:50:52.363Z,0.40
2022-08-05T14:51:51.374Z,0.40
2022-08-05T14:52:56.911Z,0.40
2022-08-05T14:54:06.598Z,0.40
2022-08-05T14:54:52.741Z,0.40
2022-08-05T14:55:52.648Z,0.40
2022-08-05T14:56:51.712Z,0.50
2022-08-05T14:57:54.691Z,0.50
2022-08-05T14:58:53.192Z,0.50
2022-08-05T14:59:51.325Z,0.50
2022-08-05T15:00:59.199Z,0.50
2022-08-05T15:01:53.885Z,0.40
2022-08-05T15:02:51.265Z,0.50
2022-08-05T15:03:51.214Z,0.40
2022-08-05T15:04:51.186Z,0.40
2022-08-05T15:06:07.695Z,0.40
2022-08-05T15:06:52.185Z,0.30
2022-08-05T15:08:08.834Z,0.40
2022-08-05T15:09:01.210Z,0.40
2022-08-05T15:09:54.545Z,0.40
2022-08-05T15:10:51.117Z,0.50
2022-08-05T15:11:53.660Z,1.30
2022-08-05T15:13:00.842Z,0.40
2022-08-05T15:13:52.086Z,0.40
2022-08-05T15:14:51.066Z,0.40
2022-08-05T15:15:54.910Z,0.40
2022-08-05T15:16:52.058Z,0.40
2022-08-05T15:17:51.203Z,0.40
2022-08-05T15:18:51.027Z,0.40
2022-08-05T15:19:51.000Z,0.40
2022-08-05T15:20:51.035Z,0.50
2022-08-05T15:21:50.968Z,0.50
2022-08-05T15:22:54.559Z,0.40
2022-08-05T15:23:50.954Z,0.50
2022-08-05T15:24:50.937Z,0.70
2022-08-05T15:25:55.867Z,0.40
2022-08-05T15:26:51.919Z,0.50
2022-08-05T15:27:52.526Z,0.40
2022-08-05T15:28:51.972Z,0.40
2022-08-05T15:29:50.878Z,0.30
2022-08-05T15:30:52.879Z,0.50
2022-08-05T15:31:52.906Z,0.50
2022-08-05T15:32:50.858Z,0.50
2022-08-05T15:34:05.014Z,0.50
2022-08-05T15:34:51.817Z,0.60
2022-08-05T15:35:50.807Z,0.50
2022-08-05T15:36:50.790Z,0.60
2022-08-05T15:38:09.209Z,0.40
2022-08-05T15:40:41.646Z,0.50
2022-08-05T15:40:59.774Z,0.50
2022-08-05T15:41:20.310Z,0.50
2022-08-05T15:41:57.591Z,0.50
2022-08-05T15:42:56.615Z,0.50
2022-08-05T15:43:51.849Z,0.50
2022-08-05T15:44:50.690Z,0.50
2022-08-05T15:46:00.616Z,1.50
2022-08-05T15:46:52.677Z,0.60
2022-08-05T15:47:50.669Z,0.50
2022-08-05T15:48:54.608Z,0.40
2022-08-05T15:49:56.761Z,0.50
2022-08-05T15:50:51.622Z,0.50
2022-08-05T15:52:04.402Z,0.50
2022-08-05T15:52:54.973Z,0.50
2022-08-05T15:53:50.584Z,0.40
2022-08-05T15:54:50.573Z,0.60
2022-08-05T15:56:02.157Z,0.40
2022-08-05T15:56:51.552Z,0.50
2022-08-05T15:57:50.543Z,0.50
2022-08-05T15:58:50.523Z,0.30
2022-08-05T15:59:53.992Z,0.60
2022-08-05T16:01:11.549Z,0.50
2022-08-05T16:01:53.023Z,0.40
2022-08-05T16:02:50.521Z,0.40
2022-08-05T16:03:51.059Z,0.40
2022-08-05T16:04:50.455Z,0.50
2022-08-05T16:05:52.735Z,0.50
2022-08-05T16:06:51.424Z,0.50
2022-08-05T16:07:50.415Z,0.50
2022-08-05T16:08:51.075Z,1.00
2022-08-05T16:09:50.387Z,0.60
2022-08-05T16:10:50.374Z,0.50
2022-08-05T16:11:53.067Z,0.60
2022-08-05T16:12:50.365Z,0.60
2022-08-05T16:13:50.334Z,0.50
2022-08-05T16:14:50.326Z,0.60
2022-08-05T16:15:50.305Z,0.60
2022-08-05T16:16:50.300Z,0.50
2022-08-05T16:17:57.941Z,0.50
2022-08-05T16:18:51.863Z,0.50
2022-08-05T16:20:04.442Z,0.50
2022-08-05T16:20:51.268Z,0.60
2022-08-05T16:22:00.382Z,0.50
2022-08-05T16:22:51.246Z,0.50
2022-08-05T16:23:54.141Z,0.60
2022-08-05T16:24:52.266Z,0.70
2022-08-05T16:25:50.187Z,0.60
2022-08-05T16:26:51.176Z,0.40
2022-08-05T16:28:02.121Z,0.60
2022-08-05T16:28:51.159Z,0.50
2022-08-05T16:29:51.203Z,0.40
2022-08-05T16:30:50.336Z,0.50
2022-08-05T16:31:57.420Z,0.50
2022-08-05T16:32:51.119Z,0.50
2022-08-05T16:33:50.087Z,0.60
2022-08-05T16:34:50.782Z,0.50
2022-08-05T16:35:52.972Z,0.40
2022-08-05T16:36:50.058Z,0.40
2022-08-05T16:38:02.549Z,0.50
2022-08-05T16:38:54.656Z,0.50
2022-08-05T16:40:05.943Z,0.40
2022-08-05T16:40:55.330Z,0.50
2022-08-05T16:42:13.689Z,0.40
2022-08-05T16:42:51.030Z,0.40
2022-08-05T16:43:56.315Z,0.60
2022-08-05T16:46:06.487Z,0.50
2022-08-05T16:47:01.774Z,0.50
2022-08-05T16:48:03.029Z,0.50
2022-08-05T16:49:00.760Z,0.50
2022-08-05T16:50:00.732Z,0.40
2022-08-05T16:51:00.739Z,0.50
2022-08-05T16:52:00.713Z,0.40
2022-08-05T16:53:01.640Z,0.40
2022-08-05T16:54:05.862Z,0.40
2022-08-05T16:55:01.683Z,0.50
2022-08-05T16:56:00.783Z,0.50
2022-08-05T16:57:00.644Z,0.50
2022-08-05T16:58:01.599Z,0.50
2022-08-05T16:59:01.447Z,0.50
2022-08-05T17:00:06.026Z,0.40
2022-08-05T17:01:01.614Z,0.40
2022-08-05T17:02:01.625Z,0.40
2022-08-05T17:03:00.592Z,0.50
2022-08-05T17:04:00.607Z,0.30
2022-08-05T17:05:00.545Z,0.50
2022-08-05T17:06:00.580Z,0.40
2022-08-05T17:07:01.513Z,0.40
2022-08-05T17:08:00.698Z,0.40
2022-08-05T17:09:00.525Z,0.40
2022-08-05T17:10:00.533Z,0.40
2022-08-05T17:11:00.485Z,0.40
2022-08-05T17:12:00.484Z,0.50
2022-08-05T17:13:00.446Z,0.40
2022-08-05T17:14:06.196Z,0.40
2022-08-05T17:15:01.416Z,0.30
2022-08-05T17:16:27.559Z,0.40
2022-08-05T17:17:01.395Z,0.40
2022-08-05T17:18:00.388Z,0.50
2022-08-05T17:19:00.387Z,0.50
2022-08-05T17:20:00.358Z,0.50
2022-08-05T17:21:00.357Z,0.50
2022-08-05T17:22:00.336Z,0.50
2022-08-05T17:23:00.329Z,0.40
2022-08-05T17:24:06.128Z,0.40
2022-08-05T17:25:01.288Z,0.50
2022-08-05T17:26:02.254Z,0.40
2022-08-05T17:27:00.268Z,0.40
2022-08-05T17:28:00.248Z,0.40
2022-08-05T17:29:00.268Z,0.40
2022-08-05T17:30:02.685Z,0.40
2022-08-05T17:31:00.217Z,0.30
2022-08-05T17:32:01.290Z,0.40
2022-08-05T17:33:00.188Z,0.40
2022-08-05T17:34:00.189Z,0.40
2022-08-05T17:35:00.171Z,0.30
2022-08-05T17:36:07.793Z,0.40
2022-08-05T17:37:01.138Z,0.40
2022-08-05T17:38:00.623Z,0.40
2022-08-05T17:39:00.163Z,0.40
2022-08-05T17:40:00.444Z,0.40
2022-08-05T17:41:00.090Z,0.50
2022-08-05T17:42:17.860Z,0.40
2022-08-05T17:43:01.060Z,0.40
2022-08-05T17:44:00.059Z,0.40
2022-08-05T17:45:00.060Z,0.40
2022-08-05T17:46:01.018Z,0.40
2022-08-05T17:47:00.011Z,0.50
2022-08-05T17:48:00.000Z,0.30
2022-08-05T17:48:59.998Z,0.40
2022-08-05T17:50:03.940Z,0.40